Heydar Aliyev — 9HFS7 — position and weather

sailwx.info

Track history (hours):
 
Tides and Currents Weather Stations Pressure Air Temp Water Temp Dewpoint Dewpoint Depression Visibility Wind Speed Wind Dir Waves Ship Positions

Heydar Aliyev

Last reported at 2016-Dec-06 11:33 UTC. Time now 2016-Dec-06 12:07 UTC.
Position N 27°48' W 015°10'.

Length 274 m; draft 9.4 m.

Type: Tanker. MMSI: 215213000.

Date/timePositionNaut miles runAvg speedWind from/ knotsBaromVisibWave heightAir tempDewpointWater temp
2016-Dec-06 11:33N 27°48' W 015°10'1312.6
2016-Dec-06 10:33N 27°59' W 015°04'1312.5
2016-Dec-06 09:33N 28°11' W 014°59'1312.9
2016-Dec-06 08:33N 28°23' W 014°54'1212.5
2016-Dec-06 07:33N 28°35' W 014°49'1312.9
2016-Dec-06 06:33N 28°47' W 014°44'1413.0
2016-Dec-06 05:27N 29°01' W 014°39'47110.5
2016-Dec-04 08:24N 34°32' W 008°06'910.6
2016-Dec-04 07:33N 34°38' W 007°58'1111.0
2016-Dec-04 06:33N 34°46' W 007°48'1111.2
2016-Dec-04 05:33N 34°54' W 007°38'12211.1
2016-Dec-03 18:32N 35°59' W 005°31'1312.4
2016-Dec-03 17:31N 36°05' W 005°17'4 0.2
2016-Dec-02 14:33N 36°05' W 005°12'9 0.5
2016-Dec-01 21:28N 36°08' W 005°23'4 4.4
2016-Dec-01 20:28N 36°05' W 005°20'2 2.2
2016-Dec-01 19:33N 36°03' W 005°18'2 2.0
2016-Dec-01 18:33N 36°04' W 005°16'7 0.4
2016-Dec-01 03:28N 36°08' W 005°09'92 8.3
2016-Nov-30 16:25N 36°18' W 003°16'1413.4
2016-Nov-30 15:22N 36°20' W 002°59'1113.1
2016-Nov-30 14:32N 36°22' W 002°45'1212.8
2016-Nov-30 13:33N 36°23' W 002°30'1312.9
2016-Nov-30 12:31N 36°25' W 002°14'1313.0
2016-Nov-30 11:33N 36°33' W 002°01'1413.1
2016-Nov-30 10:27N 36°42' W 001°47'5112.6
2016-Nov-30 06:25N 37°19' W 001°04'10 0.2
2016-Nov-28 13:12N 37°29' W 001°02'5 8.3
2016-Nov-28 12:33N 37°25' W 000°57'1110.8
2016-Nov-28 11:33N 37°21' W 000°45'  
Track history (hours):
 
Tides and Currents Weather Stations Pressure Air Temp Water Temp Dewpoint Dewpoint Depression Visibility Wind Speed Wind Dir Waves Ship Positions

Heydar Aliyev

Last reported at 2016-Dec-06 11:33 UTC. Time now 2016-Dec-06 12:07 UTC.
Position N 27°48' W 015°10'.

Length 274 m; draft 9.4 m.

Type: Tanker. MMSI: 215213000.

Date/timePositionNaut miles runAvg speedWind from/ knotsBaromVisibWave heightAir tempDewpointWater temp
2016-Dec-06 11:33N 27°48' W 015°10'1312.6
2016-Dec-06 10:33N 27°59' W 015°04'1312.5
2016-Dec-06 09:33N 28°11' W 014°59'1312.9
2016-Dec-06 08:33N 28°23' W 014°54'1212.5
2016-Dec-06 07:33N 28°35' W 014°49'1312.9
2016-Dec-06 06:33N 28°47' W 014°44'1413.0
2016-Dec-06 05:27N 29°01' W 014°39'47110.5
2016-Dec-04 08:24N 34°32' W 008°06'910.6
2016-Dec-04 07:33N 34°38' W 007°58'1111.0
2016-Dec-04 06:33N 34°46' W 007°48'1111.2
2016-Dec-04 05:33N 34°54' W 007°38'12211.1
2016-Dec-03 18:32N 35°59' W 005°31'1312.4
2016-Dec-03 17:31N 36°05' W 005°17'4 0.2
2016-Dec-02 14:33N 36°05' W 005°12'9 0.5
2016-Dec-01 21:28N 36°08' W 005°23'4 4.4
2016-Dec-01 20:28N 36°05' W 005°20'2 2.2
2016-Dec-01 19:33N 36°03' W 005°18'2 2.0
2016-Dec-01 18:33N 36°04' W 005°16'7 0.4
2016-Dec-01 03:28N 36°08' W 005°09'92 8.3
2016-Nov-30 16:25N 36°18' W 003°16'1413.4
2016-Nov-30 15:22N 36°20' W 002°59'1113.1
2016-Nov-30 14:32N 36°22' W 002°45'1212.8
2016-Nov-30 13:33N 36°23' W 002°30'1312.9
2016-Nov-30 12:31N 36°25' W 002°14'1313.0
2016-Nov-30 11:33N 36°33' W 002°01'1413.1
2016-Nov-30 10:27N 36°42' W 001°47'5112.6
2016-Nov-30 06:25N 37°19' W 001°04'10 0.2
2016-Nov-28 13:12N 37°29' W 001°02'5 8.3
2016-Nov-28 12:33N 37°25' W 000°57'1110.8
2016-Nov-28 11:33N 37°21' W 000°45'  

Dump ship's entire track history